createdAt,value
2022-07-30T00:00:28.047Z,16.70
2022-07-30T00:02:56.089Z,16.70
2022-07-30T00:05:24.162Z,16.70
2022-07-30T00:07:52.203Z,16.70
2022-07-30T00:10:23.060Z,16.70
2022-07-30T00:12:51.448Z,16.60
2022-07-30T00:15:19.499Z,16.60
2022-07-30T00:17:49.178Z,16.60
2022-07-30T00:20:18.521Z,16.70
2022-07-30T00:22:46.998Z,16.70
2022-07-30T00:25:15.350Z,16.60
2022-07-30T00:27:45.413Z,16.60
2022-07-30T00:30:14.350Z,16.60
2022-07-30T00:32:42.488Z,16.60
2022-07-30T00:35:11.654Z,16.50
2022-07-30T00:37:39.739Z,16.50
2022-07-30T00:40:09.580Z,16.40
2022-07-30T00:42:42.103Z,16.40
2022-07-30T00:45:13.395Z,16.40
2022-07-30T00:47:41.760Z,16.30
2022-07-30T00:50:11.696Z,16.20
2022-07-30T00:52:41.051Z,16.20
2022-07-30T00:55:11.308Z,16.10
2022-07-30T00:57:40.207Z,16.10
2022-07-30T01:00:12.377Z,16.10
2022-07-30T01:02:40.597Z,16.00
2022-07-30T01:05:09.571Z,15.90
2022-07-30T01:07:38.062Z,15.70
2022-07-30T01:10:07.532Z,15.70
2022-07-30T01:12:35.672Z,15.60
2022-07-30T01:15:06.430Z,15.40
2022-07-30T01:17:36.357Z,15.40
2022-07-30T01:20:08.209Z,15.30
2022-07-30T01:22:48.866Z,15.20
2022-07-30T01:25:23.199Z,15.20
2022-07-30T01:27:59.407Z,15.10
2022-07-30T01:30:30.896Z,15.10
2022-07-30T01:33:01.098Z,15.00
2022-07-30T01:35:32.896Z,15.00
2022-07-30T01:38:02.805Z,14.90
2022-07-30T01:40:31.932Z,14.90
2022-07-30T01:43:03.174Z,14.90
2022-07-30T01:45:41.506Z,14.80
2022-07-30T01:48:14.485Z,14.70
2022-07-30T01:50:45.991Z,14.60
2022-07-30T01:53:16.756Z,14.50
2022-07-30T01:55:46.234Z,14.50
2022-07-30T01:58:19.183Z,14.40
2022-07-30T02:00:49.925Z,14.30
2022-07-30T02:03:18.558Z,14.30
2022-07-30T02:05:53.444Z,14.30
2022-07-30T02:08:31.400Z,14.30
2022-07-30T02:11:03.524Z,14.20
2022-07-30T02:13:35.197Z,14.20
2022-07-30T02:16:10.981Z,14.20
2022-07-30T02:18:48.617Z,14.10
2022-07-30T02:21:21.435Z,14.10
2022-07-30T02:23:50.498Z,14.00
2022-07-30T02:26:22.143Z,14.00
2022-07-30T02:28:55.791Z,14.00
2022-07-30T02:31:28.059Z,14.00
2022-07-30T02:34:00.396Z,13.90
2022-07-30T02:36:29.831Z,13.90
2022-07-30T02:38:59.589Z,13.90
2022-07-30T02:41:30.446Z,13.90
2022-07-30T02:44:01.356Z,13.80
2022-07-30T02:46:31.245Z,13.80
2022-07-30T02:49:00.395Z,13.80
2022-07-30T02:51:29.937Z,13.70
2022-07-30T02:53:59.581Z,13.70
2022-07-30T02:56:28.542Z,13.70
2022-07-30T02:59:00.363Z,13.70
2022-07-30T03:01:29.060Z,13.60
2022-07-30T03:03:57.403Z,13.60
2022-07-30T03:06:26.760Z,13.50
2022-07-30T03:08:55.827Z,13.50
2022-07-30T03:11:26.094Z,13.50
2022-07-30T03:13:54.125Z,13.50
2022-07-30T03:16:26.031Z,13.40
2022-07-30T03:18:55.733Z,13.40
2022-07-30T03:21:27.973Z,13.40
2022-07-30T03:23:57.969Z,13.40
2022-07-30T03:26:28.202Z,13.30
2022-07-30T03:28:56.514Z,13.30
2022-07-30T03:31:28.522Z,13.30
2022-07-30T03:34:04.900Z,13.30
2022-07-30T03:36:35.140Z,13.30
2022-07-30T03:39:04.252Z,13.20
2022-07-30T03:41:33.484Z,13.20
2022-07-30T03:44:02.198Z,13.20
2022-07-30T03:46:32.618Z,13.20
2022-07-30T03:49:01.952Z,13.30
2022-07-30T03:51:32.843Z,13.30
2022-07-30T03:54:01.726Z,13.30
2022-07-30T03:56:30.388Z,13.30
2022-07-30T03:58:58.590Z,13.30
2022-07-30T04:01:27.203Z,13.30
2022-07-30T04:03:57.065Z,13.20
2022-07-30T04:06:25.088Z,13.20
2022-07-30T04:08:53.182Z,13.20
2022-07-30T04:11:21.473Z,13.20
2022-07-30T04:14:09.282Z,13.20
2022-07-30T04:16:44.722Z,13.20
2022-07-30T04:19:20.960Z,13.20
2022-07-30T04:21:50.379Z,13.30
2022-07-30T04:24:19.834Z,13.30
2022-07-30T04:26:50.010Z,13.30
2022-07-30T04:29:22.700Z,13.40
2022-07-30T04:31:53.711Z,13.40
2022-07-30T04:34:23.327Z,13.50
2022-07-30T04:36:51.348Z,13.50
2022-07-30T04:39:19.602Z,13.60
2022-07-30T04:41:49.658Z,13.70
2022-07-30T04:44:20.426Z,13.80
2022-07-30T04:46:49.055Z,13.80
2022-07-30T04:49:20.030Z,14.00
2022-07-30T04:51:51.841Z,14.00
2022-07-30T04:54:22.185Z,14.10
2022-07-30T04:56:53.485Z,14.20
2022-07-30T04:59:24.959Z,14.30
2022-07-30T05:01:54.619Z,14.50
2022-07-30T05:04:25.320Z,14.50
2022-07-30T05:06:55.809Z,14.70
2022-07-30T05:09:24.966Z,14.80
2022-07-30T05:11:54.318Z,14.90
2022-07-30T05:14:22.447Z,15.10
2022-07-30T05:16:50.607Z,15.10
2022-07-30T05:19:19.199Z,15.20
2022-07-30T05:21:47.233Z,15.30
2022-07-30T05:24:16.695Z,15.40
2022-07-30T05:26:45.250Z,15.50
2022-07-30T05:29:19.689Z,15.50
2022-07-30T05:31:49.315Z,15.40
2022-07-30T05:34:17.709Z,15.40
2022-07-30T05:36:46.115Z,15.40
2022-07-30T05:39:14.516Z,15.50
2022-07-30T05:41:43.948Z,15.50
2022-07-30T05:44:12.039Z,15.60
2022-07-30T05:46:40.104Z,15.50
2022-07-30T05:49:08.339Z,15.60
2022-07-30T05:51:36.560Z,15.80
2022-07-30T05:54:04.881Z,15.90
2022-07-30T05:56:33.045Z,15.80
2022-07-30T05:59:02.973Z,15.90
2022-07-30T06:01:31.120Z,16.10
2022-07-30T06:03:59.287Z,16.20
2022-07-30T06:06:27.801Z,16.20
2022-07-30T06:08:55.786Z,16.40
2022-07-30T06:11:24.010Z,16.50
2022-07-30T06:13:52.038Z,16.40
2022-07-30T06:16:21.537Z,16.30
2022-07-30T06:18:49.587Z,16.40
2022-07-30T06:21:17.644Z,16.50
2022-07-30T06:23:45.608Z,16.60
2022-07-30T06:26:14.256Z,16.70
2022-07-30T06:28:42.365Z,16.50
2022-07-30T06:31:10.403Z,16.50
2022-07-30T06:33:40.493Z,16.60
2022-07-30T06:36:08.799Z,16.80
2022-07-30T06:38:42.273Z,16.80
2022-07-30T06:41:10.822Z,16.80
2022-07-30T06:43:38.826Z,16.80
2022-07-30T06:46:06.934Z,16.90
2022-07-30T06:48:34.987Z,17.10
2022-07-30T06:51:04.417Z,17.30
2022-07-30T06:53:32.500Z,17.40
2022-07-30T06:56:06.476Z,17.50
2022-07-30T06:58:34.536Z,17.50
2022-07-30T07:01:02.579Z,17.30
2022-07-30T07:03:39.623Z,17.10
2022-07-30T07:06:10.177Z,17.40
2022-07-30T07:08:39.210Z,17.40
2022-07-30T07:11:07.387Z,17.60
2022-07-30T07:13:35.484Z,17.70
2022-07-30T07:16:04.137Z,17.80
2022-07-30T07:18:32.338Z,17.80
2022-07-30T07:21:00.355Z,17.90
2022-07-30T07:23:41.397Z,17.80
2022-07-30T07:26:10.876Z,17.90
2022-07-30T07:28:40.082Z,18.10
2022-07-30T07:31:08.578Z,18.20
2022-07-30T07:33:36.756Z,18.30
2022-07-30T07:36:05.417Z,18.60
2022-07-30T07:38:36.545Z,18.80
2022-07-30T07:41:05.342Z,18.90
2022-07-30T07:43:33.542Z,18.90
2022-07-30T07:46:01.593Z,19.10
2022-07-30T07:48:29.835Z,19.40
2022-07-30T07:51:00.357Z,19.60
2022-07-30T07:53:29.284Z,19.60
2022-07-30T07:55:59.605Z,19.40
2022-07-30T07:58:28.200Z,19.70
2022-07-30T08:00:57.661Z,20.00
2022-07-30T08:03:25.752Z,20.00
2022-07-30T08:06:04.728Z,20.20
2022-07-30T08:08:36.556Z,20.10
2022-07-30T08:11:07.404Z,20.20
2022-07-30T08:13:48.409Z,20.30
2022-07-30T08:16:21.095Z,20.30
2022-07-30T08:18:49.242Z,20.10
2022-07-30T08:21:17.370Z,20.10
2022-07-30T08:23:45.396Z,20.30
2022-07-30T08:26:14.974Z,20.40
2022-07-30T08:28:45.526Z,20.30
2022-07-30T08:31:13.705Z,20.30
2022-07-30T08:33:41.765Z,20.30
2022-07-30T08:36:10.400Z,20.20
2022-07-30T08:38:44.345Z,20.40
2022-07-30T08:41:14.309Z,20.30
2022-07-30T08:43:43.198Z,20.30
2022-07-30T08:46:12.065Z,20.40
2022-07-30T08:48:42.054Z,20.50
2022-07-30T08:51:10.610Z,20.80
2022-07-30T08:53:45.654Z,21.00
2022-07-30T08:56:15.292Z,21.10
2022-07-30T08:58:43.567Z,21.30
2022-07-30T09:01:11.593Z,21.40
2022-07-30T09:03:44.006Z,21.30
2022-07-30T09:06:13.205Z,21.50
2022-07-30T09:08:41.272Z,21.50
2022-07-30T09:11:09.424Z,21.80
2022-07-30T09:13:41.657Z,21.80
2022-07-30T09:16:20.553Z,21.80
2022-07-30T09:18:49.388Z,22.10
2022-07-30T09:21:19.924Z,22.40
2022-07-30T09:23:58.998Z,22.40
2022-07-30T09:26:27.489Z,22.40
2022-07-30T09:28:57.059Z,22.40
2022-07-30T09:31:25.136Z,22.20
2022-07-30T09:33:53.167Z,22.10
2022-07-30T09:36:21.172Z,22.20
2022-07-30T09:38:51.544Z,22.30
2022-07-30T09:41:38.118Z,22.40
2022-07-30T09:44:09.476Z,22.70
2022-07-30T09:46:48.383Z,22.80
2022-07-30T09:49:17.723Z,22.90
2022-07-30T09:51:57.040Z,22.50
2022-07-30T09:54:26.778Z,22.50
2022-07-30T09:57:22.909Z,22.60
2022-07-30T09:59:56.826Z,22.70
2022-07-30T10:02:32.271Z,22.50
2022-07-30T10:05:14.459Z,22.50
2022-07-30T10:07:51.202Z,22.90
2022-07-30T10:10:21.302Z,23.10
2022-07-30T10:12:53.835Z,23.40
2022-07-30T10:15:28.891Z,23.50
2022-07-30T10:17:59.298Z,23.10
2022-07-30T10:20:29.355Z,23.00
2022-07-30T10:22:58.224Z,23.00
2022-07-30T10:25:28.367Z,23.20
2022-07-30T10:27:57.941Z,23.20
2022-07-30T10:30:29.208Z,23.10
2022-07-30T10:32:59.943Z,23.30
2022-07-30T10:35:31.472Z,23.40
2022-07-30T10:38:13.866Z,23.60
2022-07-30T10:40:49.602Z,23.50
2022-07-30T10:43:56.412Z,23.70
2022-07-30T10:46:38.238Z,24.00
2022-07-30T10:49:12.679Z,24.10
2022-07-30T10:51:48.916Z,24.20
2022-07-30T10:54:39.557Z,24.40
2022-07-30T10:57:14.631Z,24.40
2022-07-30T11:00:13.577Z,24.60
2022-07-30T11:03:16.076Z,24.80
2022-07-30T11:05:45.997Z,24.90
2022-07-30T11:08:43.002Z,25.00
2022-07-30T11:12:01.334Z,25.00
2022-07-30T11:14:56.743Z,25.10
2022-07-30T11:17:25.052Z,25.20
2022-07-30T11:20:12.839Z,25.10
2022-07-30T11:22:44.476Z,25.10
2022-07-30T11:25:50.285Z,25.10
2022-07-30T11:28:37.674Z,25.00
2022-07-30T11:31:37.083Z,25.10
2022-07-30T11:34:30.613Z,25.30
2022-07-30T11:37:18.336Z,25.30
2022-07-30T11:40:13.063Z,25.20
2022-07-30T11:42:43.165Z,25.20
2022-07-30T11:45:27.782Z,25.10
2022-07-30T11:47:58.096Z,25.10
2022-07-30T11:50:27.802Z,25.20
2022-07-30T11:52:58.835Z,25.40
2022-07-30T11:55:30.242Z,25.50
2022-07-30T11:57:59.564Z,25.50
2022-07-30T12:00:35.822Z,25.60
2022-07-30T12:03:12.497Z,25.50
2022-07-30T12:05:41.617Z,25.70
2022-07-30T12:08:31.708Z,25.40
2022-07-30T12:11:02.022Z,25.30
2022-07-30T12:13:45.379Z,25.30
2022-07-30T12:16:16.424Z,25.30
2022-07-30T12:18:45.081Z,25.30
2022-07-30T12:21:16.066Z,25.10
2022-07-30T12:23:55.389Z,25.10
2022-07-30T12:26:26.701Z,25.50
2022-07-30T12:28:58.869Z,25.70
2022-07-30T12:31:27.576Z,25.80
2022-07-30T12:33:57.578Z,25.40
2022-07-30T12:36:35.208Z,25.60
2022-07-30T12:39:06.745Z,25.50
2022-07-30T12:41:45.026Z,25.00
2022-07-30T12:44:37.086Z,25.40
2022-07-30T12:47:06.951Z,26.00
2022-07-30T12:49:39.317Z,26.40
2022-07-30T12:52:28.519Z,26.50
2022-07-30T12:55:03.972Z,26.30
2022-07-30T12:57:53.619Z,25.90
2022-07-30T13:00:21.775Z,26.10
2022-07-30T13:02:49.835Z,26.40
2022-07-30T13:05:17.931Z,26.50
2022-07-30T13:07:56.492Z,26.50
2022-07-30T13:10:30.830Z,26.70
2022-07-30T13:12:59.525Z,26.90
2022-07-30T13:15:27.547Z,27.20
2022-07-30T13:17:55.998Z,27.20
2022-07-30T13:20:24.129Z,27.10
2022-07-30T13:22:52.170Z,27.00
2022-07-30T13:25:20.403Z,26.80
2022-07-30T13:27:50.274Z,26.50
2022-07-30T13:30:18.283Z,26.40
2022-07-30T13:32:46.371Z,26.30
2022-07-30T13:35:14.388Z,26.40
2022-07-30T13:37:42.408Z,26.70
2022-07-30T13:40:11.541Z,26.90
2022-07-30T13:42:39.568Z,26.70
2022-07-30T13:45:10.370Z,26.50
2022-07-30T13:47:38.441Z,26.60
2022-07-30T13:50:07.107Z,26.70
2022-07-30T13:52:35.115Z,26.70
2022-07-30T13:55:03.168Z,26.90
2022-07-30T13:57:31.194Z,27.00
2022-07-30T13:59:59.196Z,26.90
2022-07-30T14:02:28.630Z,26.80
2022-07-30T14:04:59.835Z,26.80
2022-07-30T14:07:28.503Z,26.90
2022-07-30T14:09:56.560Z,26.60
2022-07-30T14:12:24.511Z,26.40
2022-07-30T14:14:52.616Z,26.30
2022-07-30T14:17:20.624Z,26.10
2022-07-30T14:19:51.346Z,26.20
2022-07-30T14:22:19.417Z,26.60
2022-07-30T14:24:47.544Z,26.80
2022-07-30T14:27:16.472Z,27.20
2022-07-30T14:29:44.550Z,27.00
2022-07-30T14:32:12.586Z,27.20
2022-07-30T14:34:40.647Z,27.00
2022-07-30T14:37:14.763Z,26.90
2022-07-30T14:39:42.804Z,26.90
2022-07-30T14:42:10.935Z,26.70
2022-07-30T14:44:39.039Z,26.80
2022-07-30T14:47:07.928Z,27.00
2022-07-30T14:49:36.616Z,26.90
2022-07-30T14:52:04.745Z,27.30
2022-07-30T14:54:34.125Z,27.50
2022-07-30T14:57:02.556Z,27.30
2022-07-30T14:59:30.770Z,27.40
2022-07-30T15:01:58.935Z,27.50
2022-07-30T15:04:34.920Z,27.30
2022-07-30T15:07:04.384Z,27.10
2022-07-30T15:09:36.654Z,27.00
2022-07-30T15:12:10.120Z,27.00
2022-07-30T15:14:40.028Z,27.00
2022-07-30T15:17:08.439Z,27.10
2022-07-30T15:19:36.438Z,26.90
2022-07-30T15:22:05.411Z,26.80
2022-07-30T15:24:35.307Z,26.50
2022-07-30T15:27:03.382Z,26.50
2022-07-30T15:29:32.031Z,26.50
2022-07-30T15:32:01.559Z,26.60
2022-07-30T15:34:34.180Z,26.60
2022-07-30T15:37:03.280Z,26.60
2022-07-30T15:39:33.097Z,26.50
2022-07-30T15:42:03.877Z,26.40
2022-07-30T15:44:32.853Z,26.30
2022-07-30T15:47:01.161Z,26.40
2022-07-30T15:49:29.581Z,26.40
2022-07-30T15:52:00.219Z,26.40
2022-07-30T15:54:33.946Z,26.50
2022-07-30T15:57:03.490Z,26.70
2022-07-30T15:59:31.661Z,26.90
2022-07-30T16:02:02.382Z,26.70
2022-07-30T16:04:33.715Z,26.40
2022-07-30T16:07:01.726Z,26.30
2022-07-30T16:09:29.988Z,26.30
2022-07-30T16:11:58.314Z,27.70
2022-07-30T16:14:28.010Z,28.90
2022-07-30T16:16:56.240Z,31.00
2022-07-30T16:19:24.345Z,32.50
2022-07-30T16:21:52.873Z,32.80
2022-07-30T16:24:21.005Z,32.40
2022-07-30T16:26:50.567Z,32.00
2022-07-30T16:29:18.890Z,30.50
2022-07-30T16:31:48.457Z,29.60
2022-07-30T16:34:16.786Z,28.60
2022-07-30T16:36:45.210Z,28.10
2022-07-30T16:39:13.182Z,27.60
2022-07-30T16:41:41.810Z,27.10
2022-07-30T16:44:09.765Z,26.80
2022-07-30T16:46:38.735Z,26.50
2022-07-30T16:49:08.377Z,26.10
2022-07-30T16:51:36.509Z,25.80
2022-07-30T16:54:07.451Z,25.60
2022-07-30T16:56:35.576Z,25.60
2022-07-30T16:59:03.565Z,25.70
2022-07-30T17:01:32.516Z,25.60
2022-07-30T17:04:00.544Z,25.50
2022-07-30T17:06:30.197Z,25.50
2022-07-30T17:08:58.230Z,25.40
2022-07-30T17:11:47.309Z,25.40
2022-07-30T17:14:14.450Z,25.30
2022-07-30T17:16:42.471Z,25.00
2022-07-30T17:19:10.528Z,24.70
2022-07-30T17:21:40.107Z,24.50
2022-07-30T17:24:13.427Z,24.20
2022-07-30T17:26:43.206Z,24.00
2022-07-30T17:29:14.346Z,23.90
2022-07-30T17:31:44.182Z,23.90
2022-07-30T17:34:14.109Z,23.80
2022-07-30T17:36:52.702Z,23.70
2022-07-30T17:40:19.309Z,23.60
2022-07-30T17:42:10.363Z,23.60
2022-07-30T17:44:39.273Z,23.60
2022-07-30T17:47:12.333Z,23.50
2022-07-30T17:49:42.861Z,23.40
2022-07-30T17:52:12.286Z,23.30
2022-07-30T17:54:40.288Z,23.20
2022-07-30T17:57:08.804Z,23.10
2022-07-30T17:59:36.888Z,23.20
2022-07-30T18:02:05.576Z,23.20
2022-07-30T18:04:34.775Z,23.20
2022-07-30T18:07:03.052Z,23.20
2022-07-30T18:09:36.202Z,23.00
2022-07-30T18:12:07.621Z,23.00
2022-07-30T18:14:35.647Z,22.80
2022-07-30T18:17:05.167Z,22.70
2022-07-30T18:19:33.258Z,22.60
2022-07-30T18:22:02.902Z,22.40
2022-07-30T18:24:33.839Z,22.30
2022-07-30T18:27:08.328Z,22.10
2022-07-30T18:29:36.435Z,22.00
2022-07-30T18:32:05.233Z,21.80
2022-07-30T18:34:33.812Z,21.70
2022-07-30T18:37:01.927Z,21.80
2022-07-30T18:39:30.128Z,21.70
2022-07-30T18:41:59.653Z,21.50
2022-07-30T18:44:27.929Z,21.40
2022-07-30T18:46:55.986Z,21.40
2022-07-30T18:49:36.732Z,21.30
2022-07-30T18:52:07.630Z,21.30
2022-07-30T18:54:36.706Z,21.20
2022-07-30T18:57:09.076Z,21.20
2022-07-30T18:59:40.863Z,21.20
2022-07-30T19:02:09.539Z,21.10
2022-07-30T19:04:37.659Z,21.00
2022-07-30T19:07:07.146Z,21.00
2022-07-30T19:09:35.258Z,20.90
2022-07-30T19:12:03.702Z,20.80
2022-07-30T19:14:33.337Z,20.80
2022-07-30T19:17:01.360Z,20.80
2022-07-30T19:19:30.686Z,20.80
2022-07-30T19:21:58.900Z,20.70
2022-07-30T19:24:27.784Z,20.60
2022-07-30T19:26:56.427Z,20.60
2022-07-30T19:29:24.550Z,20.50
2022-07-30T19:31:53.977Z,20.40
2022-07-30T19:34:22.209Z,20.40
2022-07-30T19:36:50.229Z,20.30
2022-07-30T19:39:21.723Z,20.20
2022-07-30T19:41:51.102Z,20.20
2022-07-30T19:44:19.522Z,20.10
2022-07-30T19:46:48.702Z,20.10
2022-07-30T19:49:21.886Z,20.00
2022-07-30T19:51:59.824Z,19.90
2022-07-30T19:54:39.514Z,19.90
2022-07-30T19:57:07.622Z,19.90
2022-07-30T19:59:45.906Z,19.90
2022-07-30T20:02:23.864Z,19.90
2022-07-30T20:07:45.246Z,19.80
2022-07-30T20:10:15.215Z,19.80
2022-07-30T20:12:49.215Z,19.90
2022-07-30T20:15:18.180Z,19.90
2022-07-30T20:17:46.620Z,19.80
2022-07-30T20:20:17.868Z,19.70
2022-07-30T20:22:55.723Z,19.70
2022-07-30T20:32:25.757Z,19.60
2022-07-30T20:34:53.961Z,19.50
2022-07-30T20:37:22.852Z,19.60
2022-07-30T20:39:52.401Z,19.60
2022-07-30T20:42:23.889Z,19.50
2022-07-30T20:44:56.755Z,19.50
2022-07-30T20:47:37.406Z,19.40
2022-07-30T20:52:56.411Z,19.30
2022-07-30T20:55:52.702Z,19.40
2022-07-30T20:58:27.296Z,19.40
2022-07-30T21:01:26.474Z,19.40
2022-07-30T21:04:10.180Z,19.40
2022-07-30T21:07:36.460Z,19.40
2022-07-30T21:10:55.220Z,19.40
2022-07-30T21:14:08.727Z,19.30
2022-07-30T21:16:55.660Z,19.40
2022-07-30T21:19:25.877Z,19.40
2022-07-30T21:22:24.315Z,19.40
2022-07-30T21:28:18.500Z,19.30
2022-07-30T21:31:11.160Z,19.30
2022-07-30T21:34:05.572Z,19.20
2022-07-30T21:36:48.792Z,19.20
2022-07-30T21:39:17.444Z,19.30
2022-07-30T21:44:44.876Z,19.20
2022-07-30T21:48:18.881Z,19.10
2022-07-30T21:58:51.065Z,19.00
2022-07-30T22:08:49.228Z,18.70
2022-07-30T22:11:18.916Z,18.70
2022-07-30T22:14:02.401Z,18.60
2022-07-30T22:20:08.521Z,18.50
2022-07-30T22:22:56.169Z,18.50
2022-07-30T22:34:16.746Z,18.30
2022-07-30T22:40:24.637Z,18.20
2022-07-30T22:43:10.426Z,18.20
2022-07-30T22:46:14.918Z,18.20
2022-07-30T22:54:10.660Z,18.20
2022-07-30T22:56:14.059Z,18.20
2022-07-30T22:58:44.327Z,18.30
2022-07-30T23:01:12.404Z,18.30
2022-07-30T23:03:42.094Z,18.20
2022-07-30T23:06:14.806Z,18.20
2022-07-30T23:08:45.870Z,18.20
2022-07-30T23:11:14.214Z,18.20
2022-07-30T23:12:19.134Z,19.40
2022-07-30T23:13:42.497Z,18.10
2022-07-30T23:16:10.755Z,18.10
2022-07-30T23:18:39.138Z,18.10
2022-07-30T23:21:07.338Z,18.10
2022-07-30T23:23:36.427Z,18.10
2022-07-30T23:26:06.368Z,18.00
2022-07-30T23:28:35.027Z,18.00
2022-07-30T23:31:03.546Z,18.00
2022-07-30T23:33:32.220Z,18.00
2022-07-30T23:36:01.106Z,18.00
2022-07-30T23:38:29.364Z,17.90
2022-07-30T23:41:01.202Z,17.90
2022-07-30T23:43:31.260Z,17.80
2022-07-30T23:45:59.537Z,17.70
2022-07-30T23:48:28.248Z,17.70
2022-07-30T23:50:56.729Z,17.60
2022-07-30T23:53:25.306Z,17.60
2022-07-30T23:55:53.654Z,17.60
2022-07-30T23:58:21.772Z,17.60
